CST,Max TemperatureF,Mean TemperatureF,Min TemperatureF,Max Dew PointF,MeanDew PointF,Min DewpointF,Max Humidity, Mean Humidity, Min Humidity, Max Sea Level PressureIn, Mean Sea Level PressureIn, Min Sea Level PressureIn, Max VisibilityMiles, Mean VisibilityMiles, Min VisibilityMiles, Max Wind SpeedMPH, Mean Wind SpeedMPH, Max Gust SpeedMPH,PrecipitationIn, CloudCover, Events, WindDirDegrees
2011-11-1,69,57,45,46,40,32,80,61,42,29.99,29.88,29.84,10,10,10,16,9,20,0.00,1,,199
2011-11-2,50,42,33,38,35,31,96,73,50,30.25,30.17,30.00,10,7,0,30,15,40,0.74,8,Fog-Rain-Snow-Thunderstorm,360
2011-11-3,50,41,31,32,29,25,89,70,50,30.38,30.31,30.26,10,10,10,23,8,30,0.00,1,,346
2011-11-4,56,43,29,40,31,26,92,65,38,30.29,30.18,30.03,10,10,10,23,12,28,0.00,2,,154
2011-11-5,59,51,42,43,41,39,89,70,51,30.01,29.81,29.63,10,10,6,33,22,43,0.00,3,,157
2011-11-6,57,48,38,43,34,28,79,57,35,30.11,29.86,29.60,10,10,10,31,11,38,0.00,1,,218
2011-11-7,59,45,30,42,33,26,96,63,30,30.23,30.16,30.09,10,10,8,18,6,23,0.32,4,Rain,43
2011-11-8,47,44,41,41,36,30,96,75,53,30.13,30.08,30.04,10,10,5,25,13,31,0.20,8,Rain,17
2011-11-9,50,41,32,30,24,19,75,55,34,30.29,30.22,30.10,10,10,10,29,14,36,0.00,2,,315
2011-11-10,48,40,31,23,19,13,66,46,25,30.32,30.22,30.03,10,10,10,20,10,24,0.00,2,,289
2011-11-11,62,47,32,32,28,23,75,51,27,29.99,29.79,29.71,10,10,10,16,7,21,0.00,1,,171
2011-11-12,56,46,35,38,35,30,92,70,47,29.69,29.52,29.34,10,10,10,20,10,24,0.00,5,,164
2011-11-13,55,46,36,37,34,24,86,63,39,29.61,29.45,29.27,10,10,10,31,8,37,0.00,6,,220
2011-11-14,60,52,43,37,30,23,76,50,24,29.68,29.62,29.54,10,10,10,18,9,25,0.00,4,,197
2011-11-15,56,42,27,32,26,17,64,47,30,30.11,29.82,29.60,10,10,10,23,12,30,0.00,2,,320
2011-11-16,45,34,23,18,14,9,74,50,25,30.35,30.26,30.12,10,10,10,16,7,20,0.00,3,,327
2011-11-17,49,35,21,23,17,11,74,50,26,30.34,30.16,29.90,10,10,10,23,12,31,0.00,1,,189
2011-11-18,57,46,35,38,30,23,82,60,38,29.88,29.74,29.63,10,10,10,25,14,35,0.00,3,,176
2011-11-19,50,38,26,40,30,18,89,79,69,30.25,29.78,29.53,10,10,7,28,15,36,T,7,,360
2011-11-20,35,28,20,21,18,14,81,67,52,30.39,30.33,30.28,10,10,10,18,8,24,0.00,5,,2
2011-11-21,37,28,18,35,26,15,91,81,70,30.32,30.22,30.12,10,7,1,9,3,10,T,6,Fog,347
2011-11-22,45,38,31,38,36,30,100,85,70,30.17,30.08,30.03,8,3,0,8,4,10,T,6,Fog,350
2011-11-23,47,39,31,38,34,30,100,85,70,30.21,30.16,30.11,8,4,0,17,10,21,0.00,4,Fog,162
2011-11-24,73,54,34,44,38,34,92,61,29,30.09,29.93,29.82,10,9,6,29,13,38,0.00,2,Fog,172
2011-11-25,58,50,42,50,45,40,96,82,67,29.80,29.73,29.64,10,8,6,18,12,23,0.05,6,Rain,163
2011-11-26,51,45,38,44,30,23,86,68,50,30.24,30.03,29.72,10,10,10,39,21,51,0.00,8,,336
2011-11-27,39,31,23,23,20,17,81,63,44,30.33,30.27,30.23,10,10,10,30,12,36,0.00,3,,340
2011-11-28,45,33,20,27,22,17,88,67,45,30.24,30.16,30.10,10,10,10,17,7,22,0.00,1,,152
2011-11-29,43,34,24,28,21,16,84,59,33,30.40,30.30,30.19,10,10,10,17,8,22,0.00,1,,348
2011-11-30,50,36,22,23,19,15,77,55,33,30.22,30.03,29.90,10,10,10,21,12,26,0.00,5,,158